Littleton, MA (01460)

2:26 AM EST on February 07, 2016 (GMT -0500)
Foster St Littleton MA | | Change Station
CLOSE
Current Station
Personal Weather Station
Location: Littleton, MA
Elevation: 305 ft
Nearby Weather Stations

Elev 305 ft 42.53 °N, 71.49 °W | Updated 4 minutes ago

Mostly Cloudy
Mostly Cloudy
23.0 °F
Feels Like 23 °F
N
0.0
Wind Variable Wind from SSW

Today
High -- | Low -- °F
--% Chance of Precip.
Yesterday
High -- | Low -- °F
Precip. -- in
Pressure 30.18 in
Visibility 10.0 miles
Clouds Clear
Windchill 23 °F
Dew Point 22 °F
Humidity 96%
Rainfall 0.00 in
Snow Depth Not available.
6:53 AM 5:06 PM
Waning Crescent, 2% visible
METAR KFIT 070652Z AUTO 00000KT 10SM CLR 00/M07 A3016 RMK AO2 SLP218 T00001072
Pressure 30.18 in
Visibility 10.0 miles
Clouds Clear
Windchill 23 °F
Dew Point 22 °F
Humidity 96%
Rainfall 0.00 in
Snow Depth Not available.
6:53 AM 5:06 PM
Waning Crescent, 2% visible
METAR KFIT 070652Z AUTO 00000KT 10SM CLR 00/M07 A3016 RMK AO2 SLP218 T00001072

10-Day Weather Forecast

Almanac

Astronomy

Feb. 07, 2016 Rise Set
Actual Time
Civil Twilight
Nautical Twilight
Astronomical Twilight
Moon
Length of Visible Light
Length of Day
Tomorrow will be .
, % of the Moon is Illuminated

Today's Extremes

State Highs State Lows

Community

WunderPhotos

Upload Photos

1,891,171 photos uploaded!

WunderBlog® & News

Nearby

Air Quality

  Air Quality AQ Index Pollutant
Not available.

Snow Depth

Station Depth Elevation

Earthquake Activity

City Distance Mag. Time & Date
Minimum magnitude displayed is 2.5.

Coastal Water Temperatures

Place Temperature

Stations

Nearby Weather Stations

Station Location Temp. Windchill Dew Point Humidity Wind Precip. Elev Updated Type
                   

Watches & Warnings

There are currently no watches in effect.